KLM39J EHAM-LDSP
Flight info
| Callsign | KLM39J |
|---|---|
| Flight time | 1h 45m |
| Altitude | 35000 |
| Route | EDUPO Z739 MISGO DCT ASBON DCT TUSUK DCT UTABA DCT BEMKI DCT ELMEM DCT DIRAB DCT VESAL DCT PEVAL DCT PUL DCT LOS DCT MINTU DCT SAL |
| Aircraft | B738/M-SDE2E3FGHIRWXY/LB1 |
Departure
| Time | 2026-04-29 10:29 |
|---|---|
| Airport | Amsterdam Airport Schiphol (EHAM) |
Arrival
| Time | 2026-04-29 12:14 |
|---|---|
| Airport | Split Saint Jerome Airport (LDSP) |
| Time | Latitude | Longitude | Altitude | Speed | Heading |
|---|---|---|---|---|---|
| 2026-04-29 09:59 | 52.30748 | 4.76903 | -2 ft | 0 kts | 50° |
| 2026-04-29 10:12 | 52.30746 | 4.76899 | -2 ft | 2 kts | 50° |
| 2026-04-29 10:12 | 52.30734 | 4.76876 | -2 ft | 3 kts | 50° |
| 2026-04-29 10:12 | 52.30722 | 4.76850 | -2 ft | 3 kts | 61° |
| 2026-04-29 10:13 | 52.30715 | 4.76828 | -2 ft | 3 kts | 80° |
| 2026-04-29 10:13 | 52.30714 | 4.76813 | -2 ft | 3 kts | 153° |
| 2026-04-29 10:13 | 52.30731 | 4.76801 | -2 ft | 2 kts | 149° |
| 2026-04-29 10:13 | 52.30732 | 4.76800 | -2 ft | 2 kts | 148° |
| 2026-04-29 10:14 | 52.30715 | 4.76814 | -2 ft | 3 kts | 154° |
| 2026-04-29 10:14 | 52.30700 | 4.76829 | -2 ft | 1 kts | 148° |
| 2026-04-29 10:14 | 52.30698 | 4.76831 | -2 ft | 1 kts | 148° |
| 2026-04-29 10:16 | 52.30681 | 4.76847 | -2 ft | 7 kts | 152° |
| 2026-04-29 10:17 | 52.30628 | 4.76865 | -2 ft | 9 kts | 171° |
| 2026-04-29 10:17 | 52.30556 | 4.76918 | -2 ft | 14 kts | 147° |
| 2026-04-29 10:17 | 52.30485 | 4.76973 | -2 ft | 11 kts | 186° |
| 2026-04-29 10:17 | 52.30435 | 4.76887 | -2 ft | 11 kts | 238° |
| 2026-04-29 10:18 | 52.30383 | 4.76750 | -2 ft | 18 kts | 238° |
| 2026-04-29 10:18 | 52.30312 | 4.76565 | -2 ft | 19 kts | 238° |
| 2026-04-29 10:18 | 52.30243 | 4.76384 | -2 ft | 19 kts | 238° |
| 2026-04-29 10:18 | 52.30175 | 4.76209 | -2 ft | 18 kts | 237° |
| 2026-04-29 10:19 | 52.30095 | 4.76000 | -2 ft | 24 kts | 238° |
| 2026-04-29 10:19 | 52.30007 | 4.75769 | -2 ft | 23 kts | 238° |
| 2026-04-29 10:19 | 52.29922 | 4.75549 | -2 ft | 22 kts | 238° |
| 2026-04-29 10:19 | 52.29843 | 4.75335 | -2 ft | 21 kts | 247° |
| 2026-04-29 10:20 | 52.29881 | 4.75122 | -2 ft | 21 kts | 311° |
| 2026-04-29 10:20 | 52.29979 | 4.74940 | -2 ft | 24 kts | 311° |
| 2026-04-29 10:20 | 52.30101 | 4.74715 | 3 ft | 27 kts | 311° |
| 2026-04-29 10:20 | 52.30221 | 4.74493 | 9 ft | 25 kts | 311° |
| 2026-04-29 10:21 | 52.30336 | 4.74276 | -2 ft | 25 kts | 311° |
| 2026-04-29 10:21 | 52.30480 | 4.74199 | -2 ft | 23 kts | 4° |
| 2026-04-29 10:21 | 52.30636 | 4.74213 | -2 ft | 22 kts | 3° |
| 2026-04-29 10:21 | 52.30790 | 4.74227 | -2 ft | 22 kts | 3° |
| 2026-04-29 10:22 | 52.30947 | 4.74242 | -2 ft | 26 kts | 3° |
| 2026-04-29 10:22 | 52.31146 | 4.74261 | -2 ft | 31 kts | 3° |
| 2026-04-29 10:22 | 52.31350 | 4.74280 | -2 ft | 28 kts | 3° |
| 2026-04-29 10:22 | 52.31539 | 4.74296 | -2 ft | 26 kts | 3° |
| 2026-04-29 10:23 | 52.31717 | 4.74315 | -2 ft | 25 kts | 4° |
| 2026-04-29 10:23 | 52.31883 | 4.74329 | -2 ft | 22 kts | 3° |
| 2026-04-29 10:23 | 52.32006 | 4.74323 | -2 ft | 16 kts | 327° |
| 2026-04-29 10:23 | 52.32033 | 4.74154 | -2 ft | 16 kts | 273° |
| 2026-04-29 10:24 | 52.32039 | 4.73980 | -3 ft | 15 kts | 273° |
| 2026-04-29 10:24 | 52.32045 | 4.73796 | -2 ft | 18 kts | 273° |
| 2026-04-29 10:24 | 52.32053 | 4.73563 | -2 ft | 23 kts | 273° |
| 2026-04-29 10:24 | 52.32110 | 4.73327 | -2 ft | 23 kts | 316° |
| 2026-04-29 10:25 | 52.32230 | 4.73157 | -2 ft | 24 kts | 319° |
| 2026-04-29 10:25 | 52.32368 | 4.72964 | -2 ft | 27 kts | 319° |
| 2026-04-29 10:25 | 52.32505 | 4.72771 | -2 ft | 25 kts | 319° |
| 2026-04-29 10:25 | 52.32635 | 4.72588 | -2 ft | 24 kts | 319° |
| 2026-04-29 10:26 | 52.32745 | 4.72398 | -2 ft | 23 kts | 311° |
| 2026-04-29 10:26 | 52.32849 | 4.72207 | -2 ft | 23 kts | 311° |
| 2026-04-29 10:26 | 52.32954 | 4.72011 | -2 ft | 23 kts | 311° |
| 2026-04-29 10:26 | 52.33057 | 4.71820 | -2 ft | 22 kts | 311° |
| 2026-04-29 10:27 | 52.33123 | 4.71488 | -2 ft | 15 kts | 228° |
| 2026-04-29 10:27 | 52.33025 | 4.71345 | -2 ft | 21 kts | 221° |
| 2026-04-29 10:27 | 52.32919 | 4.71196 | -2 ft | 20 kts | 221° |
| 2026-04-29 10:28 | 52.32861 | 4.71027 | -3 ft | 17 kts | 273° |
| 2026-04-29 10:28 | 52.32914 | 4.70899 | -3 ft | 15 kts | 353° |
| 2026-04-29 10:28 | 52.33046 | 4.70909 | -5 ft | 36 kts | 3° |
| 2026-04-29 10:28 | 52.33540 | 4.70956 | -2 ft | 105 kts | 3° |
| 2026-04-29 10:29 | 52.34467 | 4.71045 | -3 ft | 160 kts | 3° |
| 2026-04-29 10:29 | 52.35663 | 4.71145 | 522 ft | 172 kts | 9° |
| 2026-04-29 10:29 | 52.36842 | 4.71275 | 1521 ft | 166 kts | 11° |
| 2026-04-29 10:29 | 52.38014 | 4.71397 | 2309 ft | 180 kts | 9° |
| 2026-04-29 10:30 | 52.39387 | 4.71532 | 2603 ft | 213 kts | 9° |
| 2026-04-29 10:30 | 52.40924 | 4.71671 | 2979 ft | 230 kts | 9° |
| 2026-04-29 10:30 | 52.42478 | 4.72162 | 3649 ft | 225 kts | 31° |
| 2026-04-29 10:30 | 52.43839 | 4.73402 | 4370 ft | 225 kts | 34° |
| 2026-04-29 10:31 | 52.45215 | 4.74668 | 5052 ft | 229 kts | 34° |
| 2026-04-29 10:31 | 52.46649 | 4.76016 | 5501 ft | 246 kts | 38° |
| 2026-04-29 10:31 | 52.47773 | 4.78108 | 6183 ft | 248 kts | 65° |
| 2026-04-29 10:31 | 52.48248 | 4.80824 | 7007 ft | 249 kts | 82° |
| 2026-04-29 10:32 | 52.48415 | 4.83676 | 7779 ft | 254 kts | 85° |
| 2026-04-29 10:32 | 52.48544 | 4.86601 | 8566 ft | 258 kts | 85° |
| 2026-04-29 10:32 | 52.48481 | 4.89561 | 9330 ft | 264 kts | 103° |
| 2026-04-29 10:32 | 52.47701 | 4.92306 | 10147 ft | 271 kts | 124° |
| 2026-04-29 10:33 | 52.46324 | 4.94486 | 10779 ft | 284 kts | 139° |
| 2026-04-29 10:33 | 52.44660 | 4.96490 | 10970 ft | 308 kts | 138° |
| 2026-04-29 10:33 | 52.43001 | 4.98885 | 11152 ft | 329 kts | 133° |
| 2026-04-29 10:33 | 52.41330 | 5.01556 | 11347 ft | 350 kts | 132° |
| 2026-04-29 10:34 | 52.39576 | 5.04422 | 11781 ft | 360 kts | 132° |
| 2026-04-29 10:34 | 52.37788 | 5.07334 | 12450 ft | 364 kts | 133° |
| 2026-04-29 10:34 | 52.35975 | 5.10258 | 13177 ft | 367 kts | 133° |
| 2026-04-29 10:34 | 52.34140 | 5.13193 | 13868 ft | 371 kts | 133° |
| 2026-04-29 10:35 | 52.32284 | 5.16139 | 14495 ft | 375 kts | 133° |
| 2026-04-29 10:35 | 52.30393 | 5.19127 | 15099 ft | 379 kts | 133° |
| 2026-04-29 10:35 | 52.28486 | 5.22130 | 15686 ft | 383 kts | 133° |
| 2026-04-29 10:35 | 52.26557 | 5.25160 | 16274 ft | 386 kts | 134° |
| 2026-04-29 10:36 | 52.24605 | 5.28215 | 16849 ft | 390 kts | 134° |
| 2026-04-29 10:36 | 52.22639 | 5.31290 | 17414 ft | 394 kts | 134° |
| 2026-04-29 10:36 | 52.20652 | 5.34393 | 17967 ft | 398 kts | 134° |
| 2026-04-29 10:36 | 52.18679 | 5.37471 | 18523 ft | 401 kts | 134° |
| 2026-04-29 10:37 | 52.16644 | 5.40639 | 19022 ft | 405 kts | 134° |
| 2026-04-29 10:37 | 52.14624 | 5.43783 | 19502 ft | 408 kts | 134° |
| 2026-04-29 10:37 | 52.12564 | 5.46982 | 20016 ft | 410 kts | 134° |
| 2026-04-29 10:37 | 52.10490 | 5.50197 | 20525 ft | 413 kts | 134° |
| 2026-04-29 10:38 | 52.08404 | 5.53428 | 21007 ft | 416 kts | 134° |
| 2026-04-29 10:38 | 52.06304 | 5.56679 | 21471 ft | 419 kts | 134° |
| 2026-04-29 10:38 | 52.04174 | 5.59971 | 21929 ft | 422 kts | 134° |
| 2026-04-29 10:38 | 52.02042 | 5.63260 | 22406 ft | 424 kts | 134° |
| 2026-04-29 10:39 | 51.99891 | 5.66571 | 22864 ft | 427 kts | 134° |
| 2026-04-29 10:39 | 51.97731 | 5.69895 | 23307 ft | 429 kts | 134° |
| 2026-04-29 10:39 | 51.95552 | 5.73244 | 23715 ft | 432 kts | 134° |
| 2026-04-29 10:39 | 51.93358 | 5.76611 | 24108 ft | 435 kts | 134° |
| 2026-04-29 10:40 | 51.91154 | 5.79989 | 24454 ft | 437 kts | 134° |
| 2026-04-29 10:40 | 51.88940 | 5.83376 | 24793 ft | 440 kts | 134° |
| 2026-04-29 10:40 | 51.86707 | 5.86789 | 25114 ft | 443 kts | 135° |
| 2026-04-29 10:40 | 51.84455 | 5.90223 | 25444 ft | 445 kts | 135° |
| 2026-04-29 10:41 | 51.82201 | 5.93658 | 25742 ft | 448 kts | 134° |
| 2026-04-29 10:41 | 51.79957 | 5.97074 | 26061 ft | 450 kts | 134° |
| 2026-04-29 10:41 | 51.77671 | 6.00546 | 26370 ft | 452 kts | 134° |
| 2026-04-29 10:41 | 51.75374 | 6.04029 | 26679 ft | 454 kts | 135° |
| 2026-04-29 10:42 | 51.73064 | 6.07528 | 26959 ft | 457 kts | 135° |
| 2026-04-29 10:42 | 51.70736 | 6.11048 | 27245 ft | 459 kts | 135° |
| 2026-04-29 10:42 | 51.68402 | 6.14572 | 27519 ft | 461 kts | 135° |
| 2026-04-29 10:42 | 51.66055 | 6.18110 | 27804 ft | 464 kts | 135° |
| 2026-04-29 10:43 | 51.63690 | 6.21671 | 28127 ft | 464 kts | 135° |
| 2026-04-29 10:43 | 51.61329 | 6.25220 | 28550 ft | 463 kts | 135° |
| 2026-04-29 10:43 | 51.58980 | 6.28743 | 29002 ft | 461 kts | 135° |
| 2026-04-29 10:43 | 51.56629 | 6.32265 | 29388 ft | 461 kts | 135° |
| 2026-04-29 10:44 | 51.54280 | 6.35781 | 29741 ft | 462 kts | 135° |
| 2026-04-29 10:44 | 51.51956 | 6.39255 | 30095 ft | 462 kts | 135° |
| 2026-04-29 10:44 | 51.49607 | 6.42761 | 30479 ft | 461 kts | 135° |
| 2026-04-29 10:44 | 51.47260 | 6.46259 | 30805 ft | 460 kts | 135° |
| 2026-04-29 10:45 | 51.44906 | 6.49761 | 31090 ft | 460 kts | 135° |
| 2026-04-29 10:45 | 51.42554 | 6.53256 | 31379 ft | 460 kts | 135° |
| 2026-04-29 10:45 | 51.40200 | 6.56747 | 31683 ft | 460 kts | 135° |
| 2026-04-29 10:45 | 51.37860 | 6.60214 | 32003 ft | 459 kts | 135° |
| 2026-04-29 10:46 | 51.35513 | 6.63685 | 32291 ft | 459 kts | 135° |
| 2026-04-29 10:46 | 51.33166 | 6.67151 | 32579 ft | 459 kts | 135° |
| 2026-04-29 10:46 | 51.30824 | 6.70605 | 32874 ft | 458 kts | 135° |
| 2026-04-29 10:46 | 51.28482 | 6.74055 | 33171 ft | 458 kts | 135° |
| 2026-04-29 10:47 | 51.26143 | 6.77495 | 33454 ft | 458 kts | 135° |
| 2026-04-29 10:47 | 51.23796 | 6.80941 | 33747 ft | 457 kts | 135° |
| 2026-04-29 10:47 | 51.21479 | 6.84339 | 34024 ft | 457 kts | 135° |
| 2026-04-29 10:47 | 51.19104 | 6.87818 | 34285 ft | 457 kts | 136° |
| 2026-04-29 10:48 | 51.16762 | 6.91243 | 34489 ft | 457 kts | 136° |
| 2026-04-29 10:48 | 51.14440 | 6.94634 | 34684 ft | 458 kts | 136° |
| 2026-04-29 10:48 | 51.12090 | 6.98059 | 34845 ft | 459 kts | 136° |
| 2026-04-29 10:48 | 51.09730 | 7.01494 | 35009 ft | 460 kts | 136° |
| 2026-04-29 10:49 | 51.07372 | 7.04923 | 35194 ft | 460 kts | 137° |
| 2026-04-29 10:49 | 51.05000 | 7.08365 | 35383 ft | 461 kts | 137° |
| 2026-04-29 10:49 | 51.02634 | 7.11795 | 35559 ft | 461 kts | 137° |
| 2026-04-29 10:49 | 51.00262 | 7.15229 | 35721 ft | 462 kts | 137° |
| 2026-04-29 10:50 | 50.97881 | 7.18671 | 35900 ft | 462 kts | 137° |
| 2026-04-29 10:50 | 50.95499 | 7.22108 | 36078 ft | 463 kts | 138° |
| 2026-04-29 10:50 | 50.93120 | 7.25536 | 36234 ft | 463 kts | 138° |
| 2026-04-29 10:50 | 50.90726 | 7.28982 | 36389 ft | 464 kts | 138° |
| 2026-04-29 10:51 | 50.88333 | 7.32422 | 36535 ft | 465 kts | 138° |
| 2026-04-29 10:51 | 50.85929 | 7.35872 | 36698 ft | 465 kts | 138° |
| 2026-04-29 10:51 | 50.83529 | 7.39310 | 36877 ft | 466 kts | 138° |
| 2026-04-29 10:51 | 50.81126 | 7.42750 | 37035 ft | 466 kts | 139° |
| 2026-04-29 10:52 | 50.78712 | 7.46201 | 37167 ft | 467 kts | 139° |
| 2026-04-29 10:52 | 50.76327 | 7.49606 | 37273 ft | 468 kts | 139° |
| 2026-04-29 10:52 | 50.73903 | 7.53058 | 37290 ft | 470 kts | 139° |
| 2026-04-29 10:53 | 50.68722 | 7.59293 | 37309 ft | 467 kts | 148° |
| 2026-04-29 10:53 | 50.63262 | 7.64818 | 37302 ft | 465 kts | 149° |
| 2026-04-29 10:54 | 50.57814 | 7.70318 | 37288 ft | 464 kts | 148° |
| 2026-04-29 10:54 | 50.52439 | 7.75820 | 37291 ft | 464 kts | 148° |
| 2026-04-29 10:55 | 50.47038 | 7.81371 | 37290 ft | 464 kts | 148° |
| 2026-04-29 10:55 | 50.42502 | 7.86025 | 37288 ft | 464 kts | 148° |
| 2026-04-29 10:56 | 50.37118 | 7.91530 | 37278 ft | 464 kts | 149° |
| 2026-04-29 10:56 | 50.31693 | 7.97060 | 37282 ft | 465 kts | 149° |
| 2026-04-29 10:57 | 50.26264 | 8.02580 | 37268 ft | 466 kts | 149° |
| 2026-04-29 10:57 | 50.20821 | 8.08099 | 37270 ft | 466 kts | 149° |
| 2026-04-29 10:58 | 50.15400 | 8.13581 | 37268 ft | 467 kts | 149° |
| 2026-04-29 10:58 | 50.09704 | 8.18414 | 37275 ft | 465 kts | 158° |
| 2026-04-29 10:59 | 50.03816 | 8.22592 | 37270 ft | 466 kts | 158° |
| 2026-04-29 10:59 | 49.97912 | 8.26758 | 37268 ft | 467 kts | 158° |
| 2026-04-29 11:00 | 49.92002 | 8.30974 | 37264 ft | 468 kts | 158° |
| 2026-04-29 11:00 | 49.86082 | 8.35218 | 37253 ft | 469 kts | 158° |
| 2026-04-29 11:01 | 49.80150 | 8.39464 | 37252 ft | 469 kts | 158° |
| 2026-04-29 11:01 | 49.74221 | 8.43696 | 37225 ft | 469 kts | 159° |
| 2026-04-29 11:02 | 49.68328 | 8.47889 | 37223 ft | 469 kts | 159° |
| 2026-04-29 11:02 | 49.62389 | 8.52102 | 37213 ft | 469 kts | 159° |
| 2026-04-29 11:03 | 49.56468 | 8.56292 | 37209 ft | 468 kts | 159° |
| 2026-04-29 11:03 | 49.50542 | 8.60474 | 37213 ft | 468 kts | 159° |
| 2026-04-29 11:04 | 49.44658 | 8.64615 | 37211 ft | 468 kts | 159° |
| 2026-04-29 11:04 | 49.38737 | 8.68771 | 37213 ft | 468 kts | 159° |
| 2026-04-29 11:05 | 49.32806 | 8.72923 | 37208 ft | 468 kts | 160° |
| 2026-04-29 11:05 | 49.26873 | 8.77066 | 37206 ft | 468 kts | 160° |
| 2026-04-29 11:06 | 49.20948 | 8.81191 | 37204 ft | 468 kts | 160° |
| 2026-04-29 11:06 | 49.15006 | 8.85318 | 37196 ft | 468 kts | 160° |
| 2026-04-29 11:07 | 49.09068 | 8.89431 | 37193 ft | 469 kts | 160° |
| 2026-04-29 11:07 | 49.03158 | 8.93514 | 37191 ft | 469 kts | 160° |
| 2026-04-29 11:08 | 48.97200 | 8.97619 | 37190 ft | 470 kts | 160° |
| 2026-04-29 11:08 | 48.91239 | 9.01716 | 37180 ft | 470 kts | 161° |
| 2026-04-29 11:09 | 48.85265 | 9.05812 | 37177 ft | 471 kts | 161° |
| 2026-04-29 11:09 | 48.79280 | 9.09903 | 37187 ft | 471 kts | 161° |
| 2026-04-29 11:10 | 48.73343 | 9.13951 | 37188 ft | 471 kts | 161° |
| 2026-04-29 11:10 | 48.67348 | 9.18029 | 37185 ft | 472 kts | 160° |
| 2026-04-29 11:11 | 48.61351 | 9.22096 | 37182 ft | 472 kts | 161° |
| 2026-04-29 11:11 | 48.55387 | 9.26132 | 37185 ft | 472 kts | 161° |
| 2026-04-29 11:12 | 48.49380 | 9.30185 | 37173 ft | 472 kts | 161° |
| 2026-04-29 11:12 | 48.43384 | 9.34221 | 37169 ft | 472 kts | 161° |
| 2026-04-29 11:13 | 48.37382 | 9.38251 | 37159 ft | 472 kts | 161° |
| 2026-04-29 11:13 | 48.31416 | 9.42248 | 37158 ft | 472 kts | 161° |
| 2026-04-29 11:14 | 48.25476 | 9.46458 | 37152 ft | 476 kts | 154° |
| 2026-04-29 11:14 | 48.20162 | 9.52499 | 37172 ft | 481 kts | 144° |
| 2026-04-29 11:15 | 48.15031 | 9.58968 | 37168 ft | 481 kts | 144° |
| 2026-04-29 11:15 | 48.09882 | 9.65383 | 37172 ft | 481 kts | 144° |
| 2026-04-29 11:16 | 48.07289 | 9.68572 | 37168 ft | 481 kts | 145° |
| 2026-04-29 11:16 | 48.03070 | 9.73729 | 37167 ft | 481 kts | 145° |
| 2026-04-29 11:17 | 47.97880 | 9.80047 | 37169 ft | 481 kts | 145° |
| 2026-04-29 11:17 | 47.92695 | 9.86346 | 37160 ft | 481 kts | 145° |
| 2026-04-29 11:18 | 47.87496 | 9.92648 | 37166 ft | 481 kts | 145° |
| 2026-04-29 11:18 | 47.82303 | 9.98926 | 37166 ft | 481 kts | 145° |
| 2026-04-29 11:19 | 47.77092 | 10.05210 | 37156 ft | 481 kts | 145° |
| 2026-04-29 11:19 | 47.71889 | 10.11467 | 37159 ft | 481 kts | 145° |
| 2026-04-29 11:20 | 47.66684 | 10.17711 | 37144 ft | 481 kts | 145° |
| 2026-04-29 11:20 | 47.61496 | 10.23921 | 37143 ft | 482 kts | 145° |
| 2026-04-29 11:21 | 47.56268 | 10.30157 | 37151 ft | 482 kts | 146° |
| 2026-04-29 11:21 | 47.50782 | 10.35810 | 37136 ft | 479 kts | 152° |
| 2026-04-29 11:22 | 47.45163 | 10.41121 | 37144 ft | 480 kts | 152° |
| 2026-04-29 11:22 | 47.39587 | 10.46461 | 37147 ft | 481 kts | 151° |
| 2026-04-29 11:23 | 47.33977 | 10.51899 | 37135 ft | 481 kts | 151° |
| 2026-04-29 11:23 | 47.28431 | 10.57263 | 37139 ft | 478 kts | 151° |
| 2026-04-29 11:24 | 47.22978 | 10.62846 | 37168 ft | 476 kts | 148° |
| 2026-04-29 11:24 | 47.17625 | 10.68551 | 37185 ft | 476 kts | 148° |
| 2026-04-29 11:25 | 47.12213 | 10.74259 | 37201 ft | 480 kts | 148° |
| 2026-04-29 11:25 | 47.06759 | 10.79951 | 37186 ft | 485 kts | 148° |
| 2026-04-29 11:26 | 46.98444 | 10.88586 | 37188 ft | 490 kts | 148° |
| 2026-04-29 11:26 | 46.92901 | 10.94331 | 37181 ft | 483 kts | 148° |
| 2026-04-29 11:27 | 46.87446 | 10.99970 | 37191 ft | 479 kts | 149° |
| 2026-04-29 11:27 | 46.82016 | 11.05609 | 37192 ft | 479 kts | 146° |
| 2026-04-29 11:28 | 46.77727 | 11.11616 | 37210 ft | 483 kts | 136° |
| 2026-04-29 11:28 | 46.73209 | 11.18806 | 37172 ft | 483 kts | 135° |
| 2026-04-29 11:29 | 46.68645 | 11.26017 | 37175 ft | 485 kts | 136° |
| 2026-04-29 11:29 | 46.64020 | 11.33201 | 37146 ft | 486 kts | 136° |
| 2026-04-29 11:30 | 46.59381 | 11.40358 | 37173 ft | 484 kts | 136° |
| 2026-04-29 11:30 | 46.54765 | 11.47459 | 37149 ft | 486 kts | 136° |
| 2026-04-29 11:31 | 46.50126 | 11.54581 | 37173 ft | 487 kts | 136° |
| 2026-04-29 11:31 | 46.45449 | 11.61746 | 37173 ft | 490 kts | 136° |
| 2026-04-29 11:32 | 46.40736 | 11.68950 | 37148 ft | 494 kts | 136° |
| 2026-04-29 11:32 | 46.35960 | 11.76132 | 37146 ft | 495 kts | 137° |
| 2026-04-29 11:33 | 46.31099 | 11.83182 | 37155 ft | 495 kts | 137° |
| 2026-04-29 11:33 | 46.26219 | 11.90220 | 37152 ft | 495 kts | 137° |
| 2026-04-29 11:34 | 46.21390 | 11.97198 | 37136 ft | 495 kts | 137° |
| 2026-04-29 11:34 | 46.16529 | 12.04225 | 37127 ft | 493 kts | 137° |
| 2026-04-29 11:35 | 46.11684 | 12.11215 | 37114 ft | 492 kts | 137° |
| 2026-04-29 11:35 | 46.06854 | 12.18163 | 37121 ft | 490 kts | 137° |
| 2026-04-29 11:36 | 46.02028 | 12.25085 | 37130 ft | 488 kts | 137° |
| 2026-04-29 11:36 | 45.97219 | 12.31965 | 37143 ft | 487 kts | 138° |
| 2026-04-29 11:37 | 45.92379 | 12.38868 | 37144 ft | 492 kts | 138° |
| 2026-04-29 11:37 | 45.87545 | 12.45748 | 37124 ft | 492 kts | 138° |
| 2026-04-29 11:38 | 45.82683 | 12.52651 | 37122 ft | 489 kts | 138° |
| 2026-04-29 11:38 | 45.77847 | 12.59499 | 37128 ft | 489 kts | 138° |
| 2026-04-29 11:39 | 45.73003 | 12.66339 | 37122 ft | 489 kts | 138° |
| 2026-04-29 11:39 | 45.68153 | 12.73170 | 37107 ft | 490 kts | 138° |
| 2026-04-29 11:40 | 45.63281 | 12.80016 | 37099 ft | 490 kts | 138° |
| 2026-04-29 11:40 | 45.58414 | 12.86836 | 37105 ft | 490 kts | 138° |
| 2026-04-29 11:41 | 45.53570 | 12.93607 | 37104 ft | 490 kts | 138° |
| 2026-04-29 11:41 | 45.48693 | 13.00408 | 37100 ft | 490 kts | 138° |
| 2026-04-29 11:42 | 45.44596 | 13.06106 | 37099 ft | 490 kts | 138° |
| 2026-04-29 11:42 | 45.39740 | 13.12846 | 37097 ft | 490 kts | 138° |
| 2026-04-29 11:43 | 45.34853 | 13.19614 | 37092 ft | 490 kts | 139° |
| 2026-04-29 11:43 | 45.30005 | 13.26436 | 37084 ft | 491 kts | 135° |
| 2026-04-29 11:44 | 45.25454 | 13.33704 | 37089 ft | 492 kts | 133° |
| 2026-04-29 11:44 | 45.20979 | 13.41055 | 37078 ft | 492 kts | 133° |
| 2026-04-29 11:45 | 45.16477 | 13.48359 | 37080 ft | 492 kts | 134° |
| 2026-04-29 11:45 | 45.11946 | 13.55627 | 37081 ft | 491 kts | 134° |
| 2026-04-29 11:46 | 45.07412 | 13.62867 | 37078 ft | 491 kts | 134° |
| 2026-04-29 11:46 | 45.02902 | 13.70057 | 37080 ft | 490 kts | 134° |
| 2026-04-29 11:47 | 44.98368 | 13.77268 | 37085 ft | 491 kts | 134° |
| 2026-04-29 11:47 | 44.93830 | 13.84469 | 37077 ft | 491 kts | 134° |
| 2026-04-29 11:48 | 44.89283 | 13.91668 | 37070 ft | 490 kts | 134° |
| 2026-04-29 11:48 | 44.84717 | 13.98731 | 37072 ft | 489 kts | 135° |
| 2026-04-29 11:49 | 44.80100 | 14.05754 | 37073 ft | 488 kts | 135° |
| 2026-04-29 11:49 | 44.75489 | 14.12767 | 37081 ft | 487 kts | 135° |
| 2026-04-29 11:50 | 44.70895 | 14.19759 | 37083 ft | 487 kts | 135° |
| 2026-04-29 11:50 | 44.66287 | 14.26759 | 37093 ft | 488 kts | 135° |
| 2026-04-29 11:51 | 44.61645 | 14.33792 | 37089 ft | 492 kts | 135° |
| 2026-04-29 11:51 | 44.56976 | 14.40851 | 36835 ft | 497 kts | 135° |
| 2026-04-29 11:52 | 44.54638 | 14.44377 | 36313 ft | 500 kts | 135° |
| 2026-04-29 11:52 | 44.52255 | 14.47905 | 35691 ft | 497 kts | 139° |
| 2026-04-29 11:52 | 44.49707 | 14.51136 | 35112 ft | 494 kts | 142° |
| 2026-04-29 11:52 | 44.47076 | 14.54230 | 34443 ft | 494 kts | 143° |
| 2026-04-29 11:53 | 44.44418 | 14.57295 | 33745 ft | 494 kts | 143° |
| 2026-04-29 11:53 | 44.41774 | 14.60367 | 32985 ft | 495 kts | 143° |
| 2026-04-29 11:53 | 44.39138 | 14.63476 | 32271 ft | 494 kts | 142° |
| 2026-04-29 11:53 | 44.36524 | 14.66586 | 31542 ft | 494 kts | 142° |
| 2026-04-29 11:54 | 44.33899 | 14.69713 | 30793 ft | 495 kts | 142° |
| 2026-04-29 11:54 | 44.31287 | 14.72814 | 30244 ft | 491 kts | 142° |
| 2026-04-29 11:54 | 44.28681 | 14.75896 | 29364 ft | 492 kts | 142° |
| 2026-04-29 11:54 | 44.26067 | 14.78980 | 28531 ft | 492 kts | 142° |
| 2026-04-29 11:55 | 44.23457 | 14.82056 | 27658 ft | 493 kts | 142° |
| 2026-04-29 11:55 | 44.20859 | 14.85114 | 26776 ft | 494 kts | 142° |
| 2026-04-29 11:55 | 44.18255 | 14.88179 | 26217 ft | 487 kts | 142° |
| 2026-04-29 11:55 | 44.15681 | 14.91207 | 25575 ft | 483 kts | 142° |
| 2026-04-29 11:56 | 44.13124 | 14.94212 | 24942 ft | 479 kts | 142° |
| 2026-04-29 11:56 | 44.10577 | 14.97200 | 24317 ft | 475 kts | 142° |
| 2026-04-29 11:56 | 44.08059 | 15.00150 | 23689 ft | 472 kts | 142° |
| 2026-04-29 11:56 | 44.05559 | 15.03076 | 22968 ft | 469 kts | 142° |
| 2026-04-29 11:57 | 44.03071 | 15.05984 | 22304 ft | 464 kts | 142° |
| 2026-04-29 11:57 | 44.00612 | 15.08856 | 21688 ft | 459 kts | 142° |
| 2026-04-29 11:57 | 43.98173 | 15.11702 | 21058 ft | 455 kts | 142° |
| 2026-04-29 11:57 | 43.95766 | 15.14507 | 20453 ft | 450 kts | 142° |
| 2026-04-29 11:58 | 43.93371 | 15.17295 | 19858 ft | 446 kts | 142° |
| 2026-04-29 11:58 | 43.91051 | 15.20045 | 19339 ft | 441 kts | 142° |
| 2026-04-29 11:58 | 43.88745 | 15.22813 | 18752 ft | 437 kts | 141° |
| 2026-04-29 11:58 | 43.86453 | 15.25574 | 18122 ft | 435 kts | 141° |
| 2026-04-29 11:59 | 43.84172 | 15.28319 | 17462 ft | 432 kts | 141° |
| 2026-04-29 11:59 | 43.81908 | 15.31035 | 16851 ft | 428 kts | 142° |
| 2026-04-29 11:59 | 43.79665 | 15.33719 | 16241 ft | 425 kts | 142° |
| 2026-04-29 11:59 | 43.77436 | 15.36381 | 15645 ft | 422 kts | 142° |
| 2026-04-29 12:00 | 43.75222 | 15.39022 | 15061 ft | 418 kts | 142° |
| 2026-04-29 12:00 | 43.73043 | 15.41617 | 14482 ft | 414 kts | 142° |
| 2026-04-29 12:00 | 43.70868 | 15.44204 | 13914 ft | 411 kts | 142° |
| 2026-04-29 12:00 | 43.68708 | 15.46773 | 13270 ft | 408 kts | 142° |
| 2026-04-29 12:01 | 43.66573 | 15.49308 | 12665 ft | 403 kts | 141° |
| 2026-04-29 12:01 | 43.64457 | 15.51818 | 12227 ft | 395 kts | 141° |
| 2026-04-29 12:01 | 43.62293 | 15.54128 | 11569 ft | 391 kts | 149° |
| 2026-04-29 12:01 | 43.59920 | 15.55869 | 11154 ft | 380 kts | 160° |
| 2026-04-29 12:02 | 43.57489 | 15.57065 | 11074 ft | 363 kts | 163° |
| 2026-04-29 12:02 | 43.55144 | 15.58188 | 10906 ft | 351 kts | 163° |
| 2026-04-29 12:02 | 43.52877 | 15.59280 | 10755 ft | 339 kts | 163° |
| 2026-04-29 12:02 | 43.50687 | 15.60343 | 10607 ft | 328 kts | 162° |
| 2026-04-29 12:03 | 43.48597 | 15.61363 | 10478 ft | 318 kts | 162° |
| 2026-04-29 12:03 | 43.46545 | 15.62366 | 10356 ft | 308 kts | 162° |
| 2026-04-29 12:03 | 43.44552 | 15.63343 | 10225 ft | 299 kts | 162° |
| 2026-04-29 12:03 | 43.42618 | 15.64290 | 10103 ft | 290 kts | 162° |
| 2026-04-29 12:04 | 43.40742 | 15.65209 | 10018 ft | 280 kts | 162° |
| 2026-04-29 12:04 | 43.38888 | 15.66115 | 9558 ft | 285 kts | 162° |
| 2026-04-29 12:04 | 43.37028 | 15.67025 | 9245 ft | 283 kts | 162° |
| 2026-04-29 12:04 | 43.35170 | 15.67934 | 8948 ft | 282 kts | 162° |
| 2026-04-29 12:05 | 43.33325 | 15.68835 | 8640 ft | 280 kts | 162° |
| 2026-04-29 12:05 | 43.31539 | 15.69784 | 8342 ft | 279 kts | 153° |
| 2026-04-29 12:05 | 43.30035 | 15.71477 | 8071 ft | 279 kts | 136° |
| 2026-04-29 12:05 | 43.28675 | 15.73354 | 7783 ft | 277 kts | 137° |
| 2026-04-29 12:06 | 43.27310 | 15.75217 | 7494 ft | 276 kts | 137° |
| 2026-04-29 12:06 | 43.25946 | 15.77067 | 7211 ft | 275 kts | 136° |
| 2026-04-29 12:06 | 43.24886 | 15.79255 | 6903 ft | 278 kts | 110° |
| 2026-04-29 12:06 | 43.24694 | 15.81875 | 6628 ft | 279 kts | 81° |
| 2026-04-29 12:07 | 43.25399 | 15.84293 | 6365 ft | 278 kts | 55° |
| 2026-04-29 12:07 | 43.26686 | 15.86266 | 6084 ft | 277 kts | 45° |
| 2026-04-29 12:07 | 43.28053 | 15.88121 | 5788 ft | 276 kts | 45° |
| 2026-04-29 12:07 | 43.29407 | 15.89972 | 5502 ft | 276 kts | 46° |
| 2026-04-29 12:08 | 43.30754 | 15.91835 | 5223 ft | 275 kts | 46° |
| 2026-04-29 12:08 | 43.32099 | 15.93705 | 4942 ft | 273 kts | 46° |
| 2026-04-29 12:08 | 43.33415 | 15.95541 | 4807 ft | 266 kts | 46° |
| 2026-04-29 12:08 | 43.34692 | 15.97326 | 4673 ft | 258 kts | 47° |
| 2026-04-29 12:09 | 43.35933 | 15.99063 | 4566 ft | 251 kts | 47° |
| 2026-04-29 12:09 | 43.37137 | 16.00751 | 4456 ft | 243 kts | 47° |
| 2026-04-29 12:09 | 43.38302 | 16.02384 | 4290 ft | 236 kts | 47° |
| 2026-04-29 12:09 | 43.39433 | 16.03971 | 4050 ft | 229 kts | 47° |
| 2026-04-29 12:10 | 43.40480 | 16.05580 | 3808 ft | 223 kts | 52° |
| 2026-04-29 12:10 | 43.41424 | 16.07227 | 3585 ft | 214 kts | 55° |
| 2026-04-29 12:10 | 43.42298 | 16.08807 | 3499 ft | 200 kts | 55° |
| 2026-04-29 12:10 | 43.43134 | 16.10328 | 3292 ft | 203 kts | 56° |
| 2026-04-29 12:11 | 43.43981 | 16.11865 | 3068 ft | 201 kts | 56° |
| 2026-04-29 12:11 | 43.44836 | 16.13417 | 2818 ft | 205 kts | 56° |
| 2026-04-29 12:11 | 43.45712 | 16.15009 | 2502 ft | 208 kts | 55° |
| 2026-04-29 12:11 | 43.46573 | 16.16556 | 2207 ft | 195 kts | 56° |
| 2026-04-29 12:12 | 43.47368 | 16.17994 | 1954 ft | 183 kts | 56° |
| 2026-04-29 12:12 | 43.48114 | 16.19344 | 1737 ft | 170 kts | 57° |
| 2026-04-29 12:12 | 43.48817 | 16.20619 | 1502 ft | 165 kts | 56° |
| 2026-04-29 12:12 | 43.49506 | 16.21867 | 1300 ft | 164 kts | 56° |
| 2026-04-29 12:13 | 43.50206 | 16.23103 | 1063 ft | 162 kts | 56° |
| 2026-04-29 12:13 | 43.50881 | 16.24333 | 819 ft | 160 kts | 58° |
| 2026-04-29 12:13 | 43.51541 | 16.25557 | 591 ft | 155 kts | 56° |
| 2026-04-29 12:13 | 43.52202 | 16.26748 | 425 ft | 154 kts | 56° |
| 2026-04-29 12:14 | 43.52847 | 16.27901 | 255 ft | 154 kts | 55° |
| 2026-04-29 12:14 | 43.53495 | 16.29073 | 84 ft | 149 kts | 56° |
| 2026-04-29 12:14 | 43.54029 | 16.30040 | 63 ft | 97 kts | 53° |
| 2026-04-29 12:14 | 43.54311 | 16.30548 | 50 ft | 37 kts | 52° |
| 2026-04-29 12:15 | 43.54385 | 16.30709 | 51 ft | 11 kts | 55° |
| 2026-04-29 12:15 | 43.54409 | 16.30710 | 52 ft | 2 kts | 292° |
| 2026-04-29 12:15 | 43.54390 | 16.30678 | 51 ft | 11 kts | 226° |
| 2026-04-29 12:15 | 43.54310 | 16.30545 | 51 ft | 23 kts | 232° |
| 2026-04-29 12:16 | 43.54215 | 16.30373 | 56 ft | 22 kts | 232° |
| 2026-04-29 12:16 | 43.54122 | 16.30207 | 61 ft | 22 kts | 232° |
| 2026-04-29 12:16 | 43.54019 | 16.30104 | 63 ft | 18 kts | 197° |
| 2026-04-29 12:16 | 43.53908 | 16.30054 | 67 ft | 15 kts | 214° |
| 2026-04-29 12:17 | 43.53842 | 16.29943 | 65 ft | 15 kts | 232° |
| 2026-04-29 12:17 | 43.53780 | 16.29832 | 59 ft | 14 kts | 233° |
| 2026-04-29 12:17 | 43.53722 | 16.29725 | 67 ft | 14 kts | 232° |
| 2026-04-29 12:17 | 43.53669 | 16.29630 | 64 ft | 10 kts | 233° |
| 2026-04-29 12:18 | 43.53621 | 16.29594 | 67 ft | 6 kts | 161° |
| 2026-04-29 12:18 | 43.53592 | 16.29622 | 67 ft | 5 kts | 140° |
| 2026-04-29 12:18 | 43.53586 | 16.29670 | 67 ft | 6 kts | 92° |
| 2026-04-29 12:18 | 43.53584 | 16.29695 | 67 ft | 1 kts | 98° |
| 2026-04-29 12:19 | 43.53584 | 16.29697 | 67 ft | 0 kts | 98° |